Time;durP1;ratioP1;P1;durP2;ratioP2;P2;SDS_P1;SDS_P2;PMS_P1;PMS_P2;Temp;Humidity;BMP_temperature;BMP_pressure;BME280_temperature;BME280_humidity;BME280_pressure;Samples;Min_cycle;Max_cycle;Signal;HPM_P1;HPM_P2
2021/12/14 00:02:13;;;;;;;6.70;5.50;;;10.20;99.90;;;;;;2613870;54;20422;-76
2021/12/14 00:04:41;;;;;;;6.20;5.60;;;10.00;99.90;;;;;;2613257;54;20422;-78
2021/12/14 00:07:16;;;;;;;6.43;5.77;;;10.00;99.90;;;;;;2614721;54;20447;-75
2021/12/14 00:09:42;;;;;;;6.40;5.80;;;10.00;99.90;;;;;;2615872;54;20554;-78
2021/12/14 00:12:42;;;;;;;6.10;5.50;;;10.10;99.90;;;;;;2614946;39;20822;-78
2021/12/14 00:15:14;;;;;;;6.50;5.50;;;10.00;99.90;;;;;;2615094;54;20442;-78
2021/12/14 00:17:42;;;;;;;7.53;6.80;;;10.00;99.90;;;;;;2612676;54;20427;-77
2021/12/14 00:20:25;;;;;;;6.90;6.20;;;10.10;99.90;;;;;;2615037;54;20431;-79
2021/12/14 00:25:30;;;;;;;6.57;5.73;;;10.10;99.90;;;;;;2615407;54;20419;-78
2021/12/14 00:28:00;;;;;;;6.80;5.73;;;10.00;99.90;;;;;;2614422;54;20415;-78
2021/12/14 00:30:27;;;;;;;7.03;6.33;;;9.50;99.90;;;;;;2615151;51;20432;-78
2021/12/14 00:32:53;;;;;;;6.97;5.83;;;9.70;99.90;;;;;;2614567;47;20439;-78
2021/12/14 00:35:20;;;;;;;5.87;5.37;;;9.60;99.90;;;;;;2616992;31;20971;-78
2021/12/14 00:37:52;;;;;;;6.73;6.13;;;9.50;99.90;;;;;;2614346;54;20461;-80
2021/12/14 00:40:31;;;;;;;7.27;5.43;;;9.10;99.90;;;;;;2615622;54;20442;-79
2021/12/14 00:42:59;;;;;;;11.57;6.20;;;9.20;99.90;;;;;;2615767;54;20420;-78
2021/12/14 00:45:27;;;;;;;8.07;6.30;;;9.50;99.90;;;;;;2615624;54;20515;-78
2021/12/14 00:47:54;;;;;;;6.10;5.60;;;9.30;99.90;;;;;;2612289;47;20411;-78
2021/12/14 00:50:23;;;;;;;7.10;6.23;;;9.00;99.90;;;;;;2616233;54;20499;-78
2021/12/14 00:52:50;;;;;;;6.20;5.60;;;9.50;99.90;;;;;;2615131;54;21026;-79
2021/12/14 00:55:21;;;;;;;5.80;5.23;;;9.50;99.90;;;;;;2615283;54;20410;-78
2021/12/14 00:57:47;;;;;;;6.50;5.87;;;9.90;99.90;;;;;;2614978;47;20424;-78
2021/12/14 01:00:18;;;;;;;7.83;5.63;;;9.40;99.90;;;;;;2616116;54;20403;-77
2021/12/14 01:02:44;;;;;;;6.07;5.07;;;9.50;99.90;;;;;;2616067;54;20423;-79
2021/12/14 01:05:18;;;;;;;8.13;5.17;;;9.30;99.90;;;;;;2616041;54;20427;-79
2021/12/14 01:07:45;;;;;;;5.27;4.30;;;9.20;99.90;;;;;;2614264;54;20436;-77
2021/12/14 01:10:23;;;;;;;6.33;5.63;;;9.50;99.90;;;;;;2615697;54;20420;-78
2021/12/14 01:12:54;;;;;;;6.80;6.10;;;9.60;99.90;;;;;;2615313;47;20518;-78
2021/12/14 01:21:45;;;;;;;5.57;4.97;;;9.20;99.90;;;;;;2614450;54;20992;-78
2021/12/14 01:24:36;;;;;;;7.27;5.63;;;9.30;99.90;;;;;;2614836;54;20422;-79
2021/12/14 01:27:04;;;;;;;5.90;4.93;;;9.20;99.90;;;;;;2615199;54;20411;-79
2021/12/14 01:29:31;;;;;;;6.53;5.83;;;9.30;99.90;;;;;;2614190;47;20415;-76
2021/12/14 01:32:00;;;;;;;5.17;4.10;;;9.10;99.90;;;;;;2616192;54;20415;-75
2021/12/14 01:34:30;;;;;;;8.37;4.87;;;9.30;99.90;;;;;;2615349;47;20427;-78
2021/12/14 01:37:06;;;;;;;6.37;5.40;;;9.50;99.90;;;;;;2613948;47;20439;-76
2021/12/14 01:40:02;;;;;;;5.50;5.00;;;9.40;99.90;;;;;;2613962;54;20462;-77
2021/12/14 01:42:40;;;;;;;5.80;4.80;;;9.50;99.90;;;;;;2615250;47;20418;-78
2021/12/14 01:45:21;;;;;;;5.80;5.30;;;9.30;99.90;;;;;;2615517;54;20462;-78
2021/12/14 01:47:54;;;;;;;6.27;5.67;;;9.40;99.90;;;;;;2614863;54;20424;-78
2021/12/14 01:50:41;;;;;;;7.60;5.00;;;9.30;99.90;;;;;;2614736;54;20420;-78
2021/12/14 01:53:14;;;;;;;6.07;5.40;;;9.20;99.90;;;;;;2614669;54;20423;-78
2021/12/14 01:55:50;;;;;;;5.77;5.13;;;9.20;99.90;;;;;;2615563;54;20953;-79
2021/12/14 01:58:18;;;;;;;5.80;5.20;;;9.20;99.90;;;;;;2614741;54;20450;-78
2021/12/14 02:00:57;;;;;;;6.20;5.60;;;9.30;99.90;;;;;;2613545;54;20410;-75
2021/12/14 02:03:44;;;;;;;7.50;5.40;;;9.40;99.90;;;;;;2614317;54;20415;-80
2021/12/14 02:06:14;;;;;;;7.77;6.13;;;9.40;99.90;;;;;;2615112;48;20472;-76
2021/12/14 02:08:42;;;;;;;9.13;5.27;;;9.20;99.90;;;;;;2613803;54;20421;-79
2021/12/14 02:11:09;;;;;;;6.03;5.30;;;9.00;99.90;;;;;;2613930;54;20427;-76
2021/12/14 02:13:42;;;;;;;8.30;5.37;;;8.80;99.90;;;;;;2614719;54;20440;-76
2021/12/14 02:16:15;;;;;;;6.13;5.50;;;8.80;99.90;;;;;;2615093;39;20813;-75
2021/12/14 02:18:49;;;;;;;5.73;5.23;;;9.00;99.90;;;;;;2614241;54;20455;-77
2021/12/14 02:21:16;;;;;;;6.70;6.10;;;9.50;99.90;;;;;;2615230;54;20390;-78
2021/12/14 02:23:50;;;;;;;7.50;5.40;;;9.40;99.90;;;;;;2614939;54;20416;-76
2021/12/14 02:26:25;;;;;;;6.27;5.70;;;9.30;99.90;;;;;;2614019;54;20412;-78
2021/12/14 02:28:53;;;;;;;6.07;5.27;;;9.40;99.90;;;;;;2614036;54;20419;-79
2021/12/14 02:31:23;;;;;;;5.57;5.10;;;9.80;99.90;;;;;;2614613;54;20519;-78
2021/12/14 02:33:51;;;;;;;5.50;5.00;;;9.40;99.90;;;;;;2614423;51;20399;-77
2021/12/14 02:36:26;;;;;;;4.90;4.50;;;9.20;99.90;;;;;;2615684;39;20779;-78
2021/12/14 02:39:05;;;;;;;8.80;5.90;;;8.80;99.90;;;;;;2613902;47;20423;-79
2021/12/14 02:41:44;;;;;;;8.37;5.80;;;8.70;99.90;;;;;;2613493;46;20502;-78
2021/12/14 02:44:11;;;;;;;6.80;6.10;;;8.80;99.90;;;;;;2614179;47;20411;-78
2021/12/14 02:46:41;;;;;;;6.50;5.40;;;8.80;99.90;;;;;;2614200;54;20462;-80
2021/12/14 02:49:11;;;;;;;6.50;6.00;;;8.60;99.90;;;;;;2614140;54;20427;-77
2021/12/14 02:51:45;;;;;;;7.63;5.90;;;8.60;99.90;;;;;;2614544;39;20861;-77
2021/12/14 02:54:29;;;;;;;7.83;6.77;;;8.70;99.90;;;;;;2613379;39;20903;-78
2021/12/14 02:57:03;;;;;;;6.20;5.40;;;8.80;99.90;;;;;;2615131;54;20947;-78
2021/12/14 02:59:32;;;;;;;6.10;5.50;;;8.60;99.90;;;;;;2614441;54;20430;-77
2021/12/14 03:02:04;;;;;;;9.00;5.90;;;8.50;99.90;;;;;;2614641;51;20460;-77
2021/12/14 03:04:32;;;;;;;16.40;4.20;;;8.40;99.90;;;;;;2614267;54;20462;-77
2021/12/14 03:07:00;;;;;;;6.20;5.60;;;8.30;99.90;;;;;;2613547;54;21081;-78
2021/12/14 03:09:54;;;;;;;13.13;6.90;;;8.50;99.90;;;;;;2613983;47;20426;-78
2021/12/14 03:12:31;;;;;;;6.30;5.70;;;8.70;99.90;;;;;;2613863;54;20435;-75
2021/12/14 03:15:23;;;;;;;9.43;7.30;;;8.60;99.90;;;;;;2614725;47;20449;-83
2021/12/14 03:17:52;;;;;;;8.70;6.63;;;8.60;99.90;;;;;;2612584;54;20450;-78
2021/12/14 03:20:49;;;;;;;8.37;6.40;;;8.70;99.90;;;;;;2614984;47;20662;-78
2021/12/14 03:23:18;;;;;;;8.40;7.00;;;8.90;99.90;;;;;;2613873;47;20411;-77
2021/12/14 03:25:48;;;;;;;7.17;6.37;;;8.90;99.90;;;;;;2614490;47;20423;-78
2021/12/14 03:28:17;;;;;;;7.37;6.23;;;8.70;99.90;;;;;;2614238;39;20832;-79
2021/12/14 03:30:46;;;;;;;13.90;7.13;;;8.30;99.90;;;;;;2614843;47;20423;-77
2021/12/14 03:33:18;;;;;;;10.40;7.60;;;8.30;99.90;;;;;;2613926;54;20978;-78
2021/12/14 03:35:59;;;;;;;7.87;7.07;;;8.40;99.90;;;;;;2615242;54;20426;-76
2021/12/14 03:38:37;;;;;;;9.33;7.30;;;8.40;99.90;;;;;;2612913;54;20452;-79
2021/12/14 03:41:15;;;;;;;7.63;6.60;;;8.40;99.90;;;;;;2613217;54;21003;-78
2021/12/14 03:44:03;;;;;;;8.47;7.40;;;8.60;99.90;;;;;;2614125;47;20419;-77
2021/12/14 03:46:50;;;;;;;7.73;6.90;;;8.70;99.90;;;;;;2615064;54;20450;-78
2021/12/14 03:49:17;;;;;;;9.57;7.17;;;8.40;99.90;;;;;;2614569;48;20410;-77
2021/12/14 03:51:44;;;;;;;7.20;6.30;;;8.50;99.90;;;;;;2613251;47;20408;-78
2021/12/14 03:54:13;;;;;;;9.90;6.93;;;8.60;99.90;;;;;;2614530;54;20921;-77
2021/12/14 03:56:39;;;;;;;6.40;4.80;;;8.70;99.90;;;;;;2614713;47;20416;-77
2021/12/14 03:59:06;;;;;;;7.33;5.60;;;8.40;99.90;;;;;;2614203;39;20794;-78
2021/12/14 04:01:39;;;;;;;9.87;7.60;;;8.30;99.90;;;;;;2613615;54;20543;-80
2021/12/14 04:04:19;;;;;;;13.60;9.03;;;8.40;99.90;;;;;;2615359;39;20769;-79
2021/12/14 04:06:51;;;;;;;9.67;8.10;;;8.50;99.90;;;;;;2614924;47;20427;-78
2021/12/14 04:09:19;;;;;;;17.37;8.20;;;8.50;99.90;;;;;;2615973;54;20425;-78
2021/12/14 04:11:45;;;;;;;13.87;8.97;;;8.40;99.90;;;;;;2613153;54;20446;-77
2021/12/14 04:14:13;;;;;;;12.17;7.10;;;8.30;99.90;;;;;;2614918;54;20417;-78
2021/12/14 04:16:41;;;;;;;18.63;10.17;;;8.30;99.90;;;;;;2614878;54;20439;-77
2021/12/14 04:19:10;;;;;;;16.37;10.87;;;8.30;99.90;;;;;;2613476;54;21043;-77
2021/12/14 04:21:40;;;;;;;11.87;8.73;;;8.40;99.90;;;;;;2615602;47;20430;-78
2021/12/14 04:24:11;;;;;;;15.53;10.03;;;8.20;99.90;;;;;;2614750;47;20519;-78
2021/12/14 04:26:44;;;;;;;13.10;9.50;;;8.10;99.90;;;;;;2615303;54;20430;-78
2021/12/14 04:29:15;;;;;;;17.57;10.20;;;8.20;99.90;;;;;;2614400;54;20454;-78
2021/12/14 04:31:43;;;;;;;11.83;8.97;;;8.20;99.90;;;;;;2614711;47;20433;-78
2021/12/14 04:34:10;;;;;;;14.17;10.80;;;8.10;99.90;;;;;;2614089;54;20441;-77
2021/12/14 04:36:37;;;;;;;19.20;11.80;;;8.10;99.90;;;;;;2614743;54;20483;-79
2021/12/14 04:53:24;;;;;;;14.83;9.17;;;7.90;99.90;;;;;;2614492;50;20412;-77
2021/12/14 04:55:56;;;;;;;16.20;10.70;;;7.90;99.90;;;;;;2615821;47;20435;-77
2021/12/14 04:58:34;;;;;;;17.87;9.90;;;7.90;99.90;;;;;;2614260;54;20423;-78
2021/12/14 05:01:03;;;;;;;17.73;11.03;;;7.90;99.90;;;;;;2614950;54;20426;-79
2021/12/14 05:03:38;;;;;;;19.40;12.97;;;7.80;99.90;;;;;;2615153;51;20423;-77
2021/12/14 05:06:21;;;;;;;19.97;13.10;;;7.90;99.90;;;;;;2614918;54;20434;-80
2021/12/14 05:09:21;;;;;;;17.80;12.40;;;8.00;99.90;;;;;;2614023;53;20416;-77
2021/12/14 05:11:50;;;;;;;19.80;12.30;;;8.30;99.90;;;;;;2615454;51;20952;-78
2021/12/14 05:14:16;;;;;;;21.57;13.27;;;8.10;99.90;;;;;;2615126;54;20409;-76
2021/12/14 05:16:46;;;;;;;23.90;15.47;;;7.90;99.90;;;;;;2613950;47;20446;-77
2021/12/14 05:19:13;;;;;;;22.23;14.87;;;8.10;99.90;;;;;;2614852;47;21074;-77
2021/12/14 05:21:44;;;;;;;23.10;15.40;;;8.10;99.90;;;;;;2615307;47;20472;-78
2021/12/14 05:24:17;;;;;;;21.50;15.80;;;8.10;99.90;;;;;;2613789;54;20435;-78
2021/12/14 05:26:53;;;;;;;22.23;13.20;;;8.20;99.90;;;;;;2614966;54;20451;-76
2021/12/14 05:29:26;;;;;;;23.63;16.90;;;8.00;99.90;;;;;;2614191;47;20427;-76
2021/12/14 05:31:52;;;;;;;26.53;17.40;;;7.90;99.90;;;;;;2616065;54;20499;-78
2021/12/14 05:34:24;;;;;;;24.87;15.57;;;8.10;99.90;;;;;;2613261;54;20419;-78
2021/12/14 05:36:54;;;;;;;24.03;15.57;;;8.20;99.90;;;;;;2614870;46;20445;-79
2021/12/14 05:44:52;;;;;;;29.27;19.27;;;8.00;99.90;;;;;;2614803;54;20431;-78
2021/12/14 05:47:19;;;;;;;37.20;15.97;;;8.00;99.90;;;;;;2613908;54;20503;-79
2021/12/14 05:49:59;;;;;;;24.90;16.47;;;7.90;99.90;;;;;;2614004;50;20419;-78
2021/12/14 05:52:28;;;;;;;23.20;15.40;;;7.90;99.90;;;;;;2612276;51;21510;-78
2021/12/14 05:55:00;;;;;;;32.30;18.47;;;8.00;99.90;;;;;;2615013;54;20462;-79
2021/12/14 05:57:27;;;;;;;24.20;17.30;;;8.20;99.90;;;;;;2613972;54;20430;-77
2021/12/14 05:59:55;;;;;;;25.77;17.63;;;8.20;99.90;;;;;;2613903;54;20446;-79
2021/12/14 06:02:23;;;;;;;28.40;18.90;;;8.40;99.90;;;;;;2612509;54;20420;-78
2021/12/14 06:04:53;;;;;;;25.57;15.93;;;8.40;99.90;;;;;;2614276;47;20408;-78
2021/12/14 06:07:21;;;;;;;32.33;17.47;;;8.50;99.90;;;;;;2613076;54;20432;-76
2021/12/14 06:09:50;;;;;;;28.37;18.03;;;8.30;99.90;;;;;;2614297;54;20415;-78
2021/12/14 06:12:33;;;;;;;28.07;17.20;;;8.10;99.90;;;;;;2614334;39;20753;-78
2021/12/14 06:15:01;;;;;;;24.20;16.80;;;8.30;99.90;;;;;;2614310;46;20447;-79
2021/12/14 06:17:32;;;;;;;24.67;16.83;;;9.00;99.90;;;;;;2613955;54;20434;-77
2021/12/14 06:20:09;;;;;;;27.40;18.30;;;9.10;99.90;;;;;;2613079;54;20443;-80
2021/12/14 06:22:36;;;;;;;31.03;17.80;;;8.50;99.90;;;;;;2612548;47;20427;-79
2021/12/14 06:25:25;;;;;;;26.70;17.20;;;8.70;99.90;;;;;;2613555;39;20880;-80
2021/12/14 06:27:55;;;;;;;31.17;17.30;;;8.10;99.90;;;;;;2611378;54;20435;-78
2021/12/14 06:30:25;;;;;;;30.90;18.77;;;8.20;99.90;;;;;;2614166;54;20424;-77
2021/12/14 06:32:57;;;;;;;31.07;17.17;;;8.20;99.90;;;;;;2611872;54;20427;-79
2021/12/14 06:35:35;;;;;;;29.63;19.57;;;8.20;99.90;;;;;;2612196;54;21211;-79
2021/12/14 06:38:34;;;;;;;31.00;18.90;;;8.20;99.90;;;;;;2611205;47;20423;-78
2021/12/14 06:41:05;;;;;;;32.60;19.53;;;8.40;99.90;;;;;;2612531;54;20556;-76
2021/12/14 06:43:51;;;;;;;29.57;19.40;;;8.40;99.90;;;;;;2612814;47;20427;-76
2021/12/14 06:46:22;;;;;;;32.50;21.03;;;8.20;99.90;;;;;;2613011;47;20428;-77
2021/12/14 06:49:02;;;;;;;36.00;18.93;;;8.30;99.90;;;;;;2610853;54;20957;-79
2021/12/14 06:51:37;;;;;;;33.63;20.20;;;8.10;99.90;;;;;;2613843;54;20435;-78
2021/12/14 06:54:32;;;;;;;27.50;15.47;;;7.90;99.90;;;;;;2612272;54;20423;-80
2021/12/14 06:57:19;;;;;;;29.93;18.93;;;7.90;99.90;;;;;;2606861;54;20510;-78
2021/12/14 07:00:08;;;;;;;35.47;19.83;;;7.90;99.90;;;;;;2613189;51;20519;-78
2021/12/14 07:03:00;;;;;;;31.90;18.87;;;7.90;99.90;;;;;;2610523;54;21016;-79
2021/12/14 07:05:44;;;;;;;34.00;19.23;;;8.00;99.90;;;;;;2612397;54;22485;-78
2021/12/14 07:08:26;;;;;;;33.20;19.57;;;8.00;99.90;;;;;;2612515;54;20491;-79
2021/12/14 07:10:54;;;;;;;34.57;21.47;;;8.20;99.90;;;;;;2608241;54;20423;-78
2021/12/14 07:13:33;;;;;;;31.33;20.40;;;8.10;99.90;;;;;;2610482;54;20456;-78
2021/12/14 07:16:02;;;;;;;33.20;21.03;;;8.10;99.90;;;;;;2608338;54;20427;-79
2021/12/14 07:18:31;;;;;;;29.80;18.27;;;8.30;99.90;;;;;;2611022;54;20414;-80
2021/12/14 07:20:58;;;;;;;31.50;19.57;;;8.40;99.90;;;;;;2613634;39;20844;-78
2021/12/14 07:23:34;;;;;;;33.60;19.77;;;8.30;99.90;;;;;;2610900;54;20514;-79
2021/12/14 07:26:05;;;;;;;30.23;18.30;;;8.30;99.90;;;;;;2613141;54;20399;-76
2021/12/14 07:28:36;;;;;;;33.73;20.73;;;8.20;99.90;;;;;;2609914;51;20465;-75
2021/12/14 07:31:14;;;;;;;35.43;20.60;;;8.50;99.90;;;;;;2611325;54;20438;-78
2021/12/14 07:33:45;;;;;;;34.87;21.27;;;8.70;99.90;;;;;;2611944;54;20419;-78
2021/12/14 07:36:14;;;;;;;27.70;18.93;;;8.40;99.90;;;;;;2614222;54;20450;-77
2021/12/14 07:38:40;;;;;;;32.53;19.83;;;8.30;99.90;;;;;;2614039;54;20389;-79
2021/12/14 07:41:30;;;;;;;35.33;20.27;;;8.30;99.90;;;;;;2615930;54;20522;-77
2021/12/14 07:44:17;;;;;;;30.67;19.87;;;8.20;99.90;;;;;;2611949;54;20447;-78
2021/12/14 07:46:45;;;;;;;29.73;19.83;;;8.20;99.90;;;;;;2614480;54;20999;-78
2021/12/14 07:49:33;;;;;;;35.33;20.13;;;8.30;99.90;;;;;;2613254;54;20453;-77
2021/12/14 07:52:02;;;;;;;32.40;22.43;;;8.50;99.90;;;;;;2614228;54;20460;-79
2021/12/14 07:54:33;;;;;;;38.60;18.27;;;8.60;99.90;;;;;;2613030;54;20417;-78
2021/12/14 07:57:15;;;;;;;28.80;18.57;;;8.20;99.90;;;;;;2610682;47;20407;-78
2021/12/14 08:00:08;;;;;;;32.93;19.23;;;8.30;99.90;;;;;;2612763;54;20450;-79
2021/12/14 08:02:51;;;;;;;29.00;18.60;;;8.30;99.90;;;;;;2610300;54;20399;-78
2021/12/14 08:05:23;;;;;;;32.10;20.13;;;8.30;99.90;;;;;;2613401;47;20500;-79
2021/12/14 08:08:08;;;;;;;35.93;22.97;;;8.40;99.90;;;;;;2611273;51;20527;-78
2021/12/14 08:10:41;;;;;;;37.20;22.70;;;8.40;99.90;;;;;;2611378;54;20429;-80
2021/12/14 08:13:11;;;;;;;33.53;21.63;;;8.50;99.90;;;;;;2612566;54;20438;-77
2021/12/14 08:15:44;;;;;;;35.87;21.20;;;8.40;99.90;;;;;;2612285;54;20427;-78
2021/12/14 08:18:23;;;;;;;33.80;21.77;;;8.20;99.90;;;;;;2613315;54;20411;-80
2021/12/14 08:20:57;;;;;;;32.80;19.83;;;8.30;99.90;;;;;;2612499;54;20436;-79
2021/12/14 08:23:26;;;;;;;33.00;20.87;;;8.40;99.90;;;;;;2613066;54;20402;-79
2021/12/14 08:25:57;;;;;;;37.03;21.53;;;8.30;99.90;;;;;;2613634;39;20881;-79
2021/12/14 08:28:24;;;;;;;33.63;20.80;;;8.20;99.90;;;;;;2610496;54;20530;-79
2021/12/14 08:31:02;;;;;;;29.13;17.87;;;8.30;99.90;;;;;;2613262;39;20810;-79
2021/12/14 08:33:31;;;;;;;29.27;18.80;;;8.60;99.90;;;;;;2613210;54;20407;-79
2021/12/14 08:36:01;;;;;;;31.37;19.63;;;8.50;99.90;;;;;;2614188;54;20867;-78
2021/12/14 08:38:30;;;;;;;31.03;19.87;;;8.40;99.90;;;;;;2614189;54;21426;-77
2021/12/14 08:41:07;;;;;;;29.40;19.57;;;8.30;99.90;;;;;;2613986;54;20438;-77
2021/12/14 08:43:35;;;;;;;32.63;21.03;;;8.60;99.90;;;;;;2614090;39;21008;-78
2021/12/14 08:46:04;;;;;;;29.90;19.47;;;8.60;99.90;;;;;;2613368;54;20425;-76
2021/12/14 08:48:38;;;;;;;34.57;21.00;;;8.70;99.90;;;;;;2611380;54;20415;-77
2021/12/14 08:51:14;;;;;;;32.00;20.03;;;8.50;99.90;;;;;;2611946;54;20432;-80
2021/12/14 08:53:46;;;;;;;28.80;18.43;;;8.40;99.90;;;;;;2613651;54;20424;-77
2021/12/14 08:56:13;;;;;;;33.83;21.53;;;8.30;99.90;;;;;;2613596;54;20511;-78
2021/12/14 08:58:40;;;;;;;31.37;20.53;;;8.40;99.90;;;;;;2611633;54;20434;-78
2021/12/14 09:01:16;;;;;;;32.60;20.07;;;8.50;99.90;;;;;;2613451;54;20473;-77
2021/12/14 09:03:53;;;;;;;28.90;18.50;;;8.30;99.90;;;;;;2613060;54;20422;-77
2021/12/14 09:06:22;;;;;;;28.03;16.77;;;8.30;99.90;;;;;;2612416;47;20419;-78
2021/12/14 09:08:50;;;;;;;31.63;20.03;;;8.40;99.90;;;;;;2611310;54;20940;-78
2021/12/14 09:11:20;;;;;;;29.03;18.53;;;8.70;99.90;;;;;;2613703;54;20481;-78
2021/12/14 09:13:47;;;;;;;33.20;19.13;;;9.00;99.90;;;;;;2612724;54;20422;-78
2021/12/14 09:16:18;;;;;;;30.27;18.60;;;9.30;99.90;;;;;;2613320;54;20422;-77
2021/12/14 09:18:52;;;;;;;31.70;19.70;;;8.80;99.90;;;;;;2613443;54;20412;-79
2021/12/14 09:21:25;;;;;;;34.13;17.70;;;8.80;99.90;;;;;;2612471;54;20968;-77
2021/12/14 09:23:55;;;;;;;30.97;18.20;;;9.00;99.90;;;;;;2609128;54;20423;-79
2021/12/14 09:26:24;;;;;;;34.47;19.87;;;8.90;99.90;;;;;;2613297;54;20521;-79
2021/12/14 09:28:50;;;;;;;29.80;18.60;;;8.70;99.90;;;;;;2612928;54;20434;-78
2021/12/14 09:31:20;;;;;;;33.00;19.90;;;8.60;99.90;;;;;;2614290;54;20770;-78
2021/12/14 09:33:48;;;;;;;25.57;15.60;;;8.50;99.90;;;;;;2611027;54;20427;-77
2021/12/14 09:36:18;;;;;;;32.60;20.33;;;8.60;99.90;;;;;;2613124;54;20472;-79
2021/12/14 09:38:49;;;;;;;34.07;21.53;;;8.50;99.90;;;;;;2613163;54;20429;-79
2021/12/14 09:41:18;;;;;;;34.27;19.90;;;8.50;99.90;;;;;;2611493;54;20411;-80
2021/12/14 09:43:46;;;;;;;37.77;22.10;;;8.60;99.90;;;;;;2610943;47;20424;-79
2021/12/14 09:46:13;;;;;;;35.47;21.77;;;8.90;99.90;;;;;;2612856;54;20444;-75
2021/12/14 09:48:47;;;;;;;41.27;24.03;;;9.00;99.90;;;;;;2613532;54;20416;-79
2021/12/14 09:51:17;;;;;;;31.77;20.17;;;9.10;99.90;;;;;;2614595;54;20504;-79
2021/12/14 09:53:48;;;;;;;36.50;21.00;;;9.10;99.90;;;;;;2614070;54;20414;-77
2021/12/14 09:56:17;;;;;;;37.40;20.37;;;8.90;99.90;;;;;;2612773;39;20835;-78
2021/12/14 09:58:48;;;;;;;36.37;19.53;;;8.60;99.90;;;;;;2612661;54;20419;-77
2021/12/14 10:01:26;;;;;;;40.70;24.97;;;8.90;99.90;;;;;;2612626;54;20435;-77
2021/12/14 10:03:54;;;;;;;38.37;24.40;;;8.80;99.90;;;;;;2612198;54;20428;-77
2021/12/14 10:06:25;;;;;;;38.77;23.67;;;8.70;99.90;;;;;;2612864;47;20468;-80
2021/12/14 10:08:59;;;;;;;37.60;22.07;;;9.50;99.90;;;;;;2612000;54;20426;-78
2021/12/14 10:11:42;;;;;;;36.27;24.60;;;9.80;99.90;;;;;;2612842;54;20619;-78
2021/12/14 10:14:09;;;;;;;46.73;23.87;;;9.50;99.90;;;;;;2612210;54;20427;-78
2021/12/14 10:16:36;;;;;;;37.20;22.40;;;9.50;99.90;;;;;;2612100;54;20419;-78
2021/12/14 10:19:07;;;;;;;32.57;21.67;;;9.50;99.90;;;;;;2612177;54;20554;-77
2021/12/14 10:21:38;;;;;;;37.03;20.67;;;9.40;99.90;;;;;;2610539;54;20412;-77
2021/12/14 10:24:06;;;;;;;34.53;24.80;;;9.50;99.90;;;;;;2611603;39;20808;-78
2021/12/14 10:26:36;;;;;;;35.97;23.63;;;9.80;99.90;;;;;;2611230;47;20545;-78
2021/12/14 10:29:03;;;;;;;42.73;23.70;;;10.10;99.90;;;;;;2609243;31;20931;-78
2021/12/14 10:31:41;;;;;;;38.60;23.27;;;10.00;99.90;;;;;;2611113;54;21097;-78
2021/12/14 10:34:13;;;;;;;32.67;21.67;;;10.10;99.90;;;;;;2610534;54;20544;-78
2021/12/14 10:36:43;;;;;;;31.60;19.10;;;9.50;99.90;;;;;;2608346;54;20400;-78
2021/12/14 10:44:32;;;;;;;31.90;21.37;;;9.00;99.90;;;;;;2611504;39;20815;-78
2021/12/14 10:46:59;;;;;;;38.80;22.47;;;9.50;99.90;;;;;;2611754;54;20420;-76
2021/12/14 10:49:26;;;;;;;35.03;20.27;;;10.00;99.90;;;;;;2609242;54;20533;-79
2021/12/14 10:52:04;;;;;;;28.57;19.50;;;9.70;99.90;;;;;;2611600;54;20975;-78
2021/12/14 10:54:31;;;;;;;34.90;19.90;;;9.20;99.90;;;;;;2613463;54;20508;-78
2021/12/14 10:57:07;;;;;;;26.00;16.90;;;9.20;99.90;;;;;;2611595;47;20419;-77
2021/12/14 10:59:37;;;;;;;30.47;18.23;;;9.00;99.90;;;;;;2614077;54;20403;-77
2021/12/14 11:02:04;;;;;;;43.30;19.93;;;9.10;99.90;;;;;;2614225;54;20438;-77
2021/12/14 11:04:38;;;;;;;35.50;20.50;;;8.80;99.90;;;;;;2613184;54;20392;-77
2021/12/14 11:07:18;;;;;;;32.27;19.17;;;8.90;99.90;;;;;;2614122;54;20984;-79
2021/12/14 11:09:47;;;;;;;29.53;20.30;;;9.40;99.90;;;;;;2614255;54;20420;-77
2021/12/14 11:12:18;;;;;;;31.77;19.10;;;9.00;99.90;;;;;;2614550;54;20919;-75
2021/12/14 11:14:45;;;;;;;31.17;20.80;;;9.30;99.90;;;;;;2614828;39;20812;-78
2021/12/14 11:20:14;;;;;;;30.80;21.00;;;9.40;99.90;;;;;;2613969;54;20444;-79
2021/12/14 11:23:03;;;;;;;33.40;20.20;;;9.50;99.90;;;;;;2614998;54;20396;-78
2021/12/14 11:25:33;;;;;;;33.83;19.83;;;9.30;99.90;;;;;;2615243;54;20439;-79
2021/12/14 11:28:04;;;;;;;35.23;22.40;;;9.30;99.90;;;;;;2614215;54;21009;-79
2021/12/14 11:30:50;;;;;;;29.60;19.07;;;9.40;99.90;;;;;;2614937;54;20395;-78
2021/12/14 11:33:28;;;;;;;30.63;20.50;;;9.20;99.90;;;;;;2615084;54;20522;-80
2021/12/14 11:35:54;;;;;;;28.93;15.27;;;9.40;99.90;;;;;;2614206;39;20787;-78
2021/12/14 11:38:31;;;;;;;30.20;20.40;;;9.40;99.90;;;;;;2613718;54;20432;-78
2021/12/14 11:41:02;;;;;;;27.70;19.80;;;9.10;99.90;;;;;;2614871;54;20230;-79
2021/12/14 11:43:29;;;;;;;31.60;20.10;;;9.30;99.90;;;;;;2614959;54;20433;-80
2021/12/14 11:46:03;;;;;;;28.30;18.83;;;9.50;99.90;;;;;;2615373;54;20475;-80
2021/12/14 11:48:34;;;;;;;29.13;18.90;;;9.60;99.90;;;;;;2613945;54;20433;-78
2021/12/14 11:51:05;;;;;;;35.63;21.23;;;9.50;99.90;;;;;;2614792;54;20403;-79
2021/12/14 11:53:31;;;;;;;31.50;20.40;;;9.50;99.90;;;;;;2614525;54;20419;-77
2021/12/14 11:55:59;;;;;;;36.97;20.60;;;9.20;99.90;;;;;;2615706;54;21028;-79
2021/12/14 11:58:30;;;;;;;28.50;17.37;;;9.30;99.90;;;;;;2615321;54;20423;-78
2021/12/14 12:01:14;;;;;;;36.80;20.47;;;9.40;99.90;;;;;;2613226;54;20443;-76
2021/12/14 12:03:42;;;;;;;32.00;19.80;;;9.30;99.90;;;;;;2615080;54;21015;-79
2021/12/14 12:09:32;;;;;;;26.40;16.23;;;9.60;99.90;;;;;;2612168;54;20966;-78
2021/12/14 12:12:04;;;;;;;27.00;19.57;;;9.40;99.90;;;;;;2615900;39;20549;-79
2021/12/14 12:14:32;;;;;;;35.70;20.93;;;9.40;99.90;;;;;;2614644;54;21024;-82
2021/12/14 12:17:31;;;;;;;31.53;20.17;;;9.50;99.90;;;;;;2614656;54;20445;-79
2021/12/14 12:20:02;;;;;;;35.87;21.00;;;9.50;99.90;;;;;;2613383;54;20443;-78
2021/12/14 12:22:38;;;;;;;33.13;21.20;;;9.50;99.90;;;;;;2614660;54;20423;-78
2021/12/14 12:25:12;;;;;;;29.40;20.57;;;9.20;99.90;;;;;;2614213;54;20426;-79
2021/12/14 12:27:50;;;;;;;30.87;20.37;;;9.20;99.90;;;;;;2614727;54;21023;-78
2021/12/14 12:30:41;;;;;;;26.23;17.67;;;9.10;99.90;;;;;;2614573;54;20414;-79
2021/12/14 12:33:25;;;;;;;33.10;20.10;;;9.50;99.90;;;;;;2615665;54;20408;-78
2021/12/14 12:36:00;;;;;;;30.60;18.10;;;9.50;99.90;;;;;;2615684;54;20403;-78
2021/12/14 12:38:46;;;;;;;29.27;20.00;;;9.60;99.90;;;;;;2613018;54;21049;-80
2021/12/14 12:41:37;;;;;;;38.10;20.47;;;9.60;99.90;;;;;;2614992;54;20414;-76
2021/12/14 12:44:37;;;;;;;31.50;18.87;;;9.40;99.90;;;;;;2614426;54;20435;-78
2021/12/14 12:47:08;;;;;;;31.87;22.70;;;9.40;99.90;;;;;;2611112;54;20439;-76
2021/12/14 12:49:40;;;;;;;30.33;21.00;;;9.60;99.90;;;;;;2615022;54;20439;-79
2021/12/14 12:52:14;;;;;;;34.17;19.20;;;9.80;99.90;;;;;;2615225;54;20426;-79
2021/12/14 12:54:52;;;;;;;35.83;21.87;;;9.70;99.90;;;;;;2613403;54;21000;-78
2021/12/14 12:57:28;;;;;;;33.27;21.30;;;9.40;99.90;;;;;;2615131;39;21132;-77
2021/12/14 13:00:10;;;;;;;32.53;21.23;;;9.60;99.90;;;;;;2615542;54;20410;-77
2021/12/14 13:02:51;;;;;;;32.13;21.30;;;9.50;99.90;;;;;;2612580;54;20422;-75
2021/12/14 13:05:26;;;;;;;31.83;22.63;;;9.80;99.90;;;;;;2614139;54;20407;-79
2021/12/14 13:07:58;;;;;;;40.33;22.60;;;9.90;99.90;;;;;;2614507;47;20431;-79
2021/12/14 13:10:34;;;;;;;30.07;17.40;;;9.80;99.90;;;;;;2614402;47;20423;-80
2021/12/14 13:13:04;;;;;;;34.57;21.47;;;9.50;99.90;;;;;;2614292;54;20518;-79
2021/12/14 13:15:36;;;;;;;29.23;17.80;;;9.60;99.90;;;;;;2614213;54;21032;-79
2021/12/14 13:18:22;;;;;;;29.87;21.07;;;9.70;99.90;;;;;;2613754;47;20477;-78
2021/12/14 13:20:52;;;;;;;37.53;23.10;;;9.60;99.90;;;;;;2615569;54;20452;-79
2021/12/14 13:23:23;;;;;;;39.90;23.00;;;9.50;99.90;;;;;;2629324;36;20455;-79
2021/12/14 13:25:50;;;;;;;40.43;24.40;;;9.40;99.90;;;;;;2612687;54;20510;-80
2021/12/14 13:28:16;;;;;;;34.63;22.90;;;9.50;99.90;;;;;;2612382;54;21011;-80
2021/12/14 13:30:43;;;;;;;30.20;20.33;;;9.50;99.90;;;;;;2612888;54;20392;-76
2021/12/14 13:33:27;;;;;;;30.40;18.90;;;9.40;99.90;;;;;;2615120;54;20419;-79
2021/12/14 13:35:54;;;;;;;36.63;21.83;;;9.40;99.90;;;;;;2614331;54;20395;-78
2021/12/14 13:38:20;;;;;;;31.30;20.90;;;9.30;99.90;;;;;;2615465;54;20434;-78
2021/12/14 13:40:47;;;;;;;32.63;20.37;;;9.50;99.90;;;;;;2611541;47;20415;-78
2021/12/14 13:43:19;;;;;;;34.23;22.70;;;9.40;99.90;;;;;;2609998;46;20443;-78
2021/12/14 13:45:57;;;;;;;35.30;20.90;;;9.40;99.90;;;;;;2610645;54;20535;-78
2021/12/14 13:48:30;;;;;;;34.63;23.37;;;9.50;99.90;;;;;;2610861;39;20854;-77
2021/12/14 13:51:01;;;;;;;35.23;22.80;;;9.60;99.90;;;;;;2615376;54;20431;-79
2021/12/14 13:53:27;;;;;;;34.30;22.13;;;9.60;99.90;;;;;;2612434;54;20418;-80
2021/12/14 13:56:00;;;;;;;32.00;23.23;;;9.50;99.90;;;;;;2614294;54;20423;-78